createdAt,value
2023-04-08T00:01:04.960Z,7.75
2023-04-08T00:03:32.555Z,8.45
2023-04-08T00:06:02.496Z,7.75
2023-04-08T00:08:32.349Z,7.47
2023-04-08T00:11:00.183Z,7.30
2023-04-08T00:13:26.815Z,7.57
2023-04-08T00:15:53.427Z,6.70
2023-04-08T00:18:20.227Z,7.32
2023-04-08T00:20:46.942Z,7.78
2023-04-08T00:23:13.679Z,7.10
2023-04-08T00:25:40.748Z,8.02
2023-04-08T00:28:07.470Z,7.35
2023-04-08T00:30:34.090Z,7.80
2023-04-08T00:33:01.801Z,7.72
2023-04-08T00:35:28.758Z,8.68
2023-04-08T00:37:55.502Z,7.85
2023-04-08T00:40:22.094Z,7.65
2023-04-08T00:42:48.691Z,7.88
2023-04-08T00:45:15.501Z,8.65
2023-04-08T00:47:42.310Z,8.30
2023-04-08T00:50:12.734Z,7.53
2023-04-08T00:52:39.477Z,8.18
2023-04-08T00:55:06.690Z,7.90
2023-04-08T00:57:33.483Z,7.75
2023-04-08T01:00:00.482Z,8.52
2023-04-08T01:02:38.873Z,7.97
2023-04-08T01:05:09.266Z,8.88
2023-04-08T01:07:41.246Z,8.30
2023-04-08T01:10:17.449Z,8.43
2023-04-08T01:12:50.238Z,7.88
2023-04-08T01:15:17.605Z,8.80
2023-04-08T01:17:46.151Z,8.55
2023-04-08T01:20:16.151Z,9.38
2023-04-08T01:23:00.768Z,9.55
2023-04-08T01:25:39.204Z,8.80
2023-04-08T01:28:16.537Z,10.65
2023-04-08T01:30:44.889Z,9.60
2023-04-08T01:33:14.065Z,10.20
2023-04-08T01:35:42.030Z,9.35
2023-04-08T01:38:16.180Z,9.02
2023-04-08T01:40:44.346Z,9.10
2023-04-08T01:43:14.785Z,10.07
2023-04-08T01:45:46.333Z,9.50
2023-04-08T01:48:16.971Z,9.23
2023-04-08T01:50:44.803Z,9.68
2023-04-08T01:53:12.664Z,9.35
2023-04-08T01:55:41.360Z,10.15
2023-04-08T01:58:11.684Z,10.48
2023-04-08T02:00:40.923Z,8.40
2023-04-08T02:03:11.945Z,9.57
2023-04-08T02:05:40.522Z,10.93
2023-04-08T02:08:07.173Z,10.95
2023-04-08T02:10:34.940Z,10.13
2023-04-08T02:13:03.310Z,10.68
2023-04-08T02:15:36.097Z,11.13
2023-04-08T02:18:13.211Z,10.95
2023-04-08T02:20:47.460Z,9.93
2023-04-08T02:23:19.399Z,11.80
2023-04-08T02:25:48.062Z,9.65
2023-04-08T02:28:16.753Z,10.50
2023-04-08T02:30:48.167Z,10.40
2023-04-08T02:33:16.492Z,11.07
2023-04-08T02:35:45.276Z,11.80
2023-04-08T02:38:15.680Z,10.90
2023-04-08T02:40:42.628Z,10.30
2023-04-08T02:43:09.267Z,11.25
2023-04-08T02:45:40.896Z,11.63
2023-04-08T02:48:07.674Z,13.05
2023-04-08T02:50:34.470Z,10.48
2023-04-08T02:53:01.351Z,11.48
2023-04-08T02:55:27.967Z,12.18
2023-04-08T02:57:54.694Z,11.10
2023-04-08T03:00:21.315Z,12.27
2023-04-08T03:02:48.218Z,10.45
2023-04-08T03:05:16.774Z,9.90
2023-04-08T03:07:43.461Z,10.95
2023-04-08T03:10:10.488Z,11.18
2023-04-08T03:12:37.238Z,10.57
2023-04-08T03:15:04.209Z,11.00
2023-04-08T03:17:33.788Z,11.18
2023-04-08T03:20:01.369Z,10.48
2023-04-08T03:22:28.038Z,11.02
2023-04-08T03:24:54.679Z,11.02
2023-04-08T03:27:21.299Z,11.95
2023-04-08T03:29:47.967Z,9.80
2023-04-08T03:32:15.078Z,10.63
2023-04-08T03:34:41.680Z,10.57
2023-04-08T03:37:08.413Z,10.55
2023-04-08T03:39:35.163Z,10.25
2023-04-08T03:42:03.055Z,11.73
2023-04-08T03:44:29.971Z,11.18
2023-04-08T03:46:56.787Z,10.52
2023-04-08T03:49:24.856Z,11.32
2023-04-08T03:51:51.421Z,10.25
2023-04-08T03:54:18.168Z,10.50
2023-04-08T03:56:44.803Z,10.73
2023-04-08T03:59:11.373Z,10.85
2023-04-08T04:01:39.174Z,11.82
2023-04-08T04:04:07.008Z,11.45
2023-04-08T04:06:33.988Z,10.20
2023-04-08T04:09:00.614Z,10.98
2023-04-08T04:11:27.401Z,10.90
2023-04-08T04:13:56.777Z,11.25
2023-04-08T04:16:23.389Z,10.65
2023-04-08T04:18:50.358Z,10.85
2023-04-08T04:21:17.400Z,9.80
2023-04-08T04:23:43.971Z,10.50
2023-04-08T04:26:11.307Z,9.10
2023-04-08T04:28:38.537Z,9.60
2023-04-08T04:31:05.657Z,9.68
2023-04-08T04:33:32.369Z,10.10
2023-04-08T04:35:59.044Z,9.82
2023-04-08T04:38:25.736Z,9.98
2023-04-08T04:40:52.512Z,9.88
2023-04-08T04:43:19.084Z,10.05
2023-04-08T04:45:45.825Z,8.60
2023-04-08T04:48:12.534Z,9.88
2023-04-08T04:50:39.137Z,10.07
2023-04-08T04:53:08.284Z,10.05
2023-04-08T04:55:35.967Z,10.25
2023-04-08T04:58:04.178Z,9.38
2023-04-08T05:00:30.856Z,9.30
2023-04-08T05:02:57.679Z,8.55
2023-04-08T05:05:24.585Z,9.00
2023-04-08T05:07:51.236Z,9.73
2023-04-08T05:10:17.987Z,9.50
2023-04-08T05:12:44.668Z,9.05
2023-04-08T05:15:11.377Z,8.85
2023-04-08T05:17:38.070Z,8.57
2023-04-08T05:20:05.186Z,9.40
2023-04-08T05:22:32.042Z,8.90
2023-04-08T05:24:58.734Z,9.48
2023-04-08T05:27:25.602Z,8.90
2023-04-08T05:29:52.399Z,10.30
2023-04-08T05:32:19.160Z,9.40
2023-04-08T05:34:45.922Z,9.25
2023-04-08T05:37:12.708Z,9.82
2023-04-08T05:39:39.445Z,10.48
2023-04-08T05:42:06.184Z,9.75
2023-04-08T05:44:32.788Z,9.35
2023-04-08T05:47:00.423Z,9.40
2023-04-08T05:49:27.343Z,9.45
2023-04-08T05:51:54.070Z,9.40
2023-04-08T05:54:20.963Z,8.98
2023-04-08T05:56:48.815Z,9.70
2023-04-08T05:59:15.750Z,9.80
2023-04-08T06:01:43.762Z,10.07
2023-04-08T06:04:10.520Z,9.88
2023-04-08T06:06:40.632Z,10.45
2023-04-08T06:09:07.357Z,12.00
2023-04-08T06:11:33.910Z,11.27
2023-04-08T06:14:00.681Z,11.82
2023-04-08T06:16:27.691Z,10.18
2023-04-08T06:18:54.680Z,12.20
2023-04-08T06:21:21.595Z,11.32
2023-04-08T06:23:48.405Z,10.63
2023-04-08T06:26:15.315Z,11.20
2023-04-08T06:29:02.849Z,11.70
2023-04-08T06:31:29.564Z,11.02
2023-04-08T06:33:56.383Z,9.90
2023-04-08T06:36:23.164Z,10.32
2023-04-08T06:38:50.088Z,10.90
2023-04-08T06:41:17.956Z,10.32
2023-04-08T06:43:45.742Z,11.43
2023-04-08T06:46:12.605Z,10.40
2023-04-08T06:48:40.115Z,11.00
2023-04-08T06:51:07.879Z,10.30
2023-04-08T06:53:34.577Z,9.77
2023-04-08T06:56:01.582Z,10.50
2023-04-08T06:58:29.671Z,10.77
2023-04-08T07:00:56.690Z,11.43
2023-04-08T07:03:26.064Z,10.60
2023-04-08T07:05:53.157Z,10.68
2023-04-08T07:08:20.105Z,10.68
2023-04-08T07:10:46.776Z,10.05
2023-04-08T07:13:16.203Z,10.35
2023-04-08T07:15:46.015Z,10.98
2023-04-08T07:18:13.496Z,10.52
2023-04-08T07:20:40.568Z,10.43
2023-04-08T07:23:07.401Z,11.18
2023-04-08T07:25:37.372Z,11.00
2023-04-08T07:28:04.225Z,10.30
2023-04-08T07:30:31.057Z,10.70
2023-04-08T07:33:00.581Z,11.45
2023-04-08T07:35:29.012Z,11.18
2023-04-08T07:37:57.821Z,12.02
2023-04-08T07:40:26.539Z,11.82
2023-04-08T07:42:53.234Z,11.35
2023-04-08T07:45:20.336Z,11.27
2023-04-08T07:47:47.314Z,12.18
2023-04-08T07:50:15.039Z,11.63
2023-04-08T07:52:42.779Z,11.68
2023-04-08T07:55:09.893Z,10.95
2023-04-08T07:57:36.511Z,11.05
2023-04-08T08:00:04.809Z,11.35
2023-04-08T08:02:34.468Z,10.80
2023-04-08T08:05:12.501Z,11.23
2023-04-08T08:07:39.306Z,10.98
2023-04-08T08:10:06.745Z,10.82
2023-04-08T08:12:33.368Z,11.25
2023-04-08T08:15:00.560Z,11.27
2023-04-08T08:17:30.073Z,16.10
2023-04-08T08:19:57.117Z,11.38
2023-04-08T08:22:23.711Z,10.35
2023-04-08T08:24:56.282Z,10.52
2023-04-08T08:27:23.161Z,10.73
2023-04-08T08:29:50.261Z,9.93
2023-04-08T08:32:16.964Z,10.38
2023-04-08T08:34:46.380Z,10.90
2023-04-08T08:37:16.723Z,12.02
2023-04-08T08:39:43.452Z,10.30
2023-04-08T08:42:23.627Z,11.50
2023-04-08T08:44:50.883Z,10.23
2023-04-08T08:47:18.344Z,12.18
2023-04-08T08:49:45.710Z,11.07
2023-04-08T08:52:17.108Z,10.60
2023-04-08T08:54:45.184Z,10.52
2023-04-08T08:57:20.600Z,11.48
2023-04-08T08:59:47.858Z,10.55
2023-04-08T09:02:31.977Z,10.88
2023-04-08T09:05:04.132Z,11.50
2023-04-08T09:07:36.263Z,11.77
2023-04-08T09:10:03.542Z,10.52
2023-04-08T09:12:31.342Z,10.48
2023-04-08T09:15:09.529Z,9.63
2023-04-08T09:17:38.111Z,10.75
2023-04-08T09:20:12.550Z,10.05
2023-04-08T09:22:59.141Z,9.50
2023-04-08T09:25:32.034Z,9.43
2023-04-08T09:27:59.511Z,9.40
2023-04-08T09:30:27.430Z,9.75
2023-04-08T09:32:56.931Z,9.00
2023-04-08T09:35:26.294Z,8.25
2023-04-08T09:37:52.995Z,8.32
2023-04-08T09:40:20.937Z,8.77
2023-04-08T09:42:51.088Z,8.38
2023-04-08T09:45:18.517Z,7.95
2023-04-08T09:47:57.155Z,7.85
2023-04-08T09:50:36.377Z,8.35
2023-04-08T09:53:18.700Z,8.02
2023-04-08T09:55:50.598Z,8.27
2023-04-08T09:58:25.758Z,7.93
2023-04-08T10:03:40.952Z,7.70
2023-04-08T10:06:12.096Z,7.15
2023-04-08T10:08:39.131Z,7.68
2023-04-08T10:11:06.306Z,7.57
2023-04-08T10:13:34.054Z,7.30
2023-04-08T10:16:25.985Z,7.20
2023-04-08T10:18:56.102Z,7.75
2023-04-08T10:21:32.827Z,7.32
2023-04-08T10:24:01.312Z,7.32
2023-04-08T10:26:33.641Z,8.10
2023-04-08T10:29:18.549Z,8.10
2023-04-08T10:31:57.370Z,7.53
2023-04-08T10:34:26.342Z,7.70
2023-04-08T10:36:55.637Z,7.88
2023-04-08T10:39:22.781Z,7.55
2023-04-08T10:41:51.878Z,8.38
2023-04-08T10:44:23.339Z,8.10
2023-04-08T10:46:51.958Z,8.25
2023-04-08T10:49:19.433Z,8.07
2023-04-08T10:51:46.978Z,7.68
2023-04-08T10:54:18.414Z,8.20
2023-04-08T10:56:50.235Z,8.35
2023-04-08T10:59:26.889Z,8.05
2023-04-08T11:01:53.896Z,8.25
2023-04-08T11:04:20.993Z,8.55
2023-04-08T11:06:48.122Z,7.75
2023-04-08T11:09:19.373Z,8.50
2023-04-08T11:11:46.813Z,7.93
2023-04-08T11:14:13.658Z,7.75
2023-04-08T11:16:40.966Z,7.82
2023-04-08T11:19:08.909Z,8.98
2023-04-08T11:21:37.634Z,7.68
2023-04-08T11:24:14.850Z,8.13
2023-04-08T11:26:42.795Z,8.25
2023-04-08T11:29:14.251Z,8.68
2023-04-08T11:31:43.432Z,8.30
2023-04-08T11:34:10.429Z,8.10
2023-04-08T11:36:40.235Z,8.10
2023-04-08T11:39:08.832Z,7.68
2023-04-08T11:41:40.339Z,9.05
2023-04-08T11:44:07.546Z,7.93
2023-04-08T11:46:35.395Z,7.90
2023-04-08T11:49:03.418Z,8.05
2023-04-08T11:51:30.347Z,8.10
2023-04-08T11:53:57.839Z,8.13
2023-04-08T11:56:27.138Z,8.50
2023-04-08T11:58:54.014Z,8.48
2023-04-08T12:01:23.997Z,8.75
2023-04-08T12:03:59.231Z,8.40
2023-04-08T12:06:27.280Z,8.90
2023-04-08T12:08:55.649Z,8.90
2023-04-08T12:11:22.965Z,8.55
2023-04-08T12:13:50.907Z,8.93
2023-04-08T12:16:18.276Z,8.88
2023-04-08T12:18:45.049Z,9.38
2023-04-08T12:21:11.753Z,9.35
2023-04-08T12:23:38.679Z,8.48
2023-04-08T12:26:05.633Z,9.27
2023-04-08T12:28:38.553Z,9.10
2023-04-08T12:31:05.451Z,9.10
2023-04-08T12:33:32.273Z,9.13
2023-04-08T12:35:59.399Z,9.23
2023-04-08T12:38:27.055Z,9.57
2023-04-08T12:40:56.623Z,9.40
2023-04-08T12:43:23.738Z,8.88
2023-04-08T12:45:53.434Z,8.85
2023-04-08T12:48:21.343Z,9.13
2023-04-08T12:50:49.318Z,9.80
2023-04-08T12:53:16.094Z,9.48
2023-04-08T12:55:44.794Z,9.30
2023-04-08T12:58:13.128Z,9.02
2023-04-08T13:00:46.422Z,9.32
2023-04-08T13:03:15.845Z,9.30
2023-04-08T13:05:43.921Z,9.63
2023-04-08T13:08:14.370Z,9.45
2023-04-08T13:10:42.517Z,9.55
2023-04-08T13:13:09.255Z,9.77
2023-04-08T13:15:38.074Z,9.50
2023-04-08T13:18:05.236Z,9.43
2023-04-08T13:20:32.273Z,9.80
2023-04-08T13:23:00.651Z,10.45
2023-04-08T13:25:27.421Z,10.20
2023-04-08T13:27:59.316Z,10.23
2023-04-08T13:30:26.159Z,9.90
2023-04-08T13:32:53.007Z,10.30
2023-04-08T13:35:20.147Z,9.55
2023-04-08T13:37:46.949Z,8.98
2023-04-08T13:40:14.435Z,9.55
2023-04-08T13:42:41.576Z,8.98
2023-04-08T13:45:08.612Z,9.90
2023-04-08T13:47:37.636Z,10.02
2023-04-08T13:50:05.223Z,9.80
2023-04-08T13:52:34.236Z,8.95
2023-04-08T13:55:01.123Z,9.50
2023-04-08T13:57:29.896Z,10.38
2023-04-08T13:59:56.586Z,10.07
2023-04-08T14:02:23.340Z,9.50
2023-04-08T14:04:53.496Z,9.20
2023-04-08T14:07:20.546Z,9.02
2023-04-08T14:09:48.366Z,9.48
2023-04-08T14:12:15.391Z,9.65
2023-04-08T14:14:42.146Z,9.60
2023-04-08T14:17:08.919Z,9.30
2023-04-08T14:19:38.797Z,9.40
2023-04-08T14:22:09.244Z,10.15
2023-04-08T14:24:36.974Z,9.05
2023-04-08T14:27:07.448Z,9.45
2023-04-08T14:29:36.074Z,10.13
2023-04-08T14:32:02.711Z,9.57
2023-04-08T14:34:29.474Z,9.38
2023-04-08T14:36:57.161Z,10.77
2023-04-08T14:39:23.906Z,11.02
2023-04-08T14:41:54.987Z,10.80
2023-04-08T14:44:21.697Z,10.88
2023-04-08T14:46:52.434Z,11.00
2023-04-08T14:49:21.616Z,12.13
2023-04-08T14:51:48.315Z,11.05
2023-04-08T14:54:16.687Z,11.55
2023-04-08T14:56:48.242Z,11.25
2023-04-08T14:59:14.984Z,11.65
2023-04-08T15:01:41.821Z,12.15
2023-04-08T15:04:08.692Z,11.40
2023-04-08T15:06:35.827Z,11.13
2023-04-08T15:09:04.775Z,12.30
2023-04-08T15:11:35.546Z,11.80
2023-04-08T15:14:02.312Z,11.48
2023-04-08T15:16:31.475Z,10.98
2023-04-08T15:19:02.406Z,11.50
2023-04-08T15:21:29.199Z,9.85
2023-04-08T15:23:58.081Z,10.43
2023-04-08T15:26:25.347Z,10.82
2023-04-08T15:28:58.968Z,10.85
2023-04-08T15:31:28.282Z,10.20
2023-04-08T15:33:55.070Z,11.20
2023-04-08T15:36:24.889Z,11.73
2023-04-08T15:38:54.710Z,11.90
2023-04-08T15:41:22.733Z,11.52
2023-04-08T15:43:54.200Z,11.70
2023-04-08T15:46:21.364Z,10.90
2023-04-08T15:48:48.992Z,11.13
2023-04-08T15:51:16.782Z,11.68
2023-04-08T15:53:46.740Z,12.13
2023-04-08T15:56:15.045Z,11.93
2023-04-08T15:58:42.350Z,12.52
2023-04-08T16:01:12.166Z,11.90
2023-04-08T16:03:39.209Z,12.63
2023-04-08T16:06:08.925Z,14.45
2023-04-08T16:08:35.640Z,12.52
2023-04-08T16:11:06.191Z,11.73
2023-04-08T16:13:35.690Z,11.45
2023-04-08T16:16:03.141Z,10.35
2023-04-08T16:18:30.918Z,11.65
2023-04-08T16:21:01.719Z,12.10
2023-04-08T16:23:38.359Z,11.50
2023-04-08T16:26:08.652Z,11.85
2023-04-08T16:28:39.464Z,9.73
2023-04-08T16:31:06.987Z,6.57
2023-04-08T16:33:33.807Z,8.63
2023-04-08T16:36:05.013Z,4.78
2023-04-08T16:38:33.049Z,4.80
2023-04-08T16:40:59.963Z,3.40
2023-04-08T16:43:29.785Z,4.05
2023-04-08T16:45:56.509Z,4.25
2023-04-08T16:48:27.009Z,3.08
2023-04-08T16:50:55.828Z,2.92
2023-04-08T16:53:22.619Z,3.17
2023-04-08T16:55:49.343Z,3.95
2023-04-08T16:58:19.175Z,3.13
2023-04-08T17:00:46.176Z,4.03
2023-04-08T17:03:16.720Z,2.83
2023-04-08T17:05:49.393Z,3.38
2023-04-08T17:08:19.485Z,2.58
2023-04-08T17:10:51.326Z,2.50
2023-04-08T17:13:18.167Z,2.83
2023-04-08T17:15:52.847Z,2.80
2023-04-08T17:18:19.620Z,2.90
2023-04-08T17:20:46.727Z,2.92
2023-04-08T17:23:14.053Z,3.28
2023-04-08T17:25:40.831Z,3.08
2023-04-08T17:28:07.557Z,3.00
2023-04-08T17:30:34.351Z,2.90
2023-04-08T17:33:01.441Z,3.15
2023-04-08T17:35:28.176Z,3.30
2023-04-08T17:37:54.745Z,3.35
2023-04-08T17:40:21.795Z,3.60
2023-04-08T17:42:48.461Z,3.53
2023-04-08T17:45:15.192Z,3.30
2023-04-08T17:47:44.612Z,3.05
2023-04-08T17:50:11.942Z,3.25
2023-04-08T17:52:38.718Z,3.70
2023-04-08T17:55:06.094Z,3.78
2023-04-08T17:57:32.781Z,4.82
2023-04-08T17:59:59.328Z,4.50
2023-04-08T18:02:27.443Z,5.00
2023-04-08T18:04:55.614Z,5.47
2023-04-08T18:07:22.245Z,5.68
2023-04-08T18:09:49.127Z,5.70
2023-04-08T18:12:15.698Z,5.50
2023-04-08T18:14:42.273Z,5.45
2023-04-08T18:17:09.204Z,6.35
2023-04-08T18:19:35.808Z,6.30
2023-04-08T18:22:04.412Z,6.30
2023-04-08T18:24:31.153Z,6.72
2023-04-08T18:27:04.401Z,7.15
2023-04-08T18:29:31.666Z,7.38
2023-04-08T18:31:58.463Z,8.45
2023-04-08T18:34:25.788Z,8.85
2023-04-08T18:36:52.688Z,10.50
2023-04-08T18:39:19.391Z,9.20
2023-04-08T18:41:46.183Z,9.25
2023-04-08T18:44:13.166Z,8.90
2023-04-08T18:46:40.103Z,7.55
2023-04-08T18:49:06.885Z,8.95
2023-04-08T18:51:34.175Z,9.05
2023-04-08T18:54:00.694Z,9.48
2023-04-08T18:56:27.847Z,8.82
2023-04-08T18:58:54.968Z,9.10
2023-04-08T19:01:21.798Z,8.30
2023-04-08T19:03:48.763Z,8.45
2023-04-08T19:06:17.264Z,7.03
2023-04-08T19:08:44.265Z,6.32
2023-04-08T19:11:11.677Z,6.20
2023-04-08T19:13:39.425Z,6.50
2023-04-08T19:16:06.811Z,6.47
2023-04-08T19:18:33.551Z,5.80
2023-04-08T19:21:00.931Z,5.95
2023-04-08T19:23:27.472Z,7.45
2023-04-08T19:25:54.162Z,7.28
2023-04-08T19:28:20.777Z,6.63
2023-04-08T19:30:48.382Z,5.95
2023-04-08T19:33:17.246Z,5.97
2023-04-08T19:35:43.887Z,6.22
2023-04-08T19:38:11.879Z,6.78
2023-04-08T19:40:40.264Z,6.43
2023-04-08T19:43:06.812Z,6.00
2023-04-08T19:45:34.426Z,6.22
2023-04-08T19:48:01.210Z,5.88
2023-04-08T19:50:28.081Z,5.60
2023-04-08T19:52:54.744Z,4.93
2023-04-08T19:55:21.618Z,5.10
2023-04-08T19:57:48.530Z,4.78
2023-04-08T20:00:15.349Z,4.35
2023-04-08T20:02:42.115Z,4.82
2023-04-08T20:05:14.566Z,5.45
2023-04-08T20:07:41.126Z,6.97
2023-04-08T20:10:08.876Z,8.93
2023-04-08T20:12:35.676Z,10.68
2023-04-08T20:15:02.307Z,10.77
2023-04-08T20:17:29.024Z,12.75
2023-04-08T20:19:55.788Z,7.88
2023-04-08T20:22:24.039Z,10.68
2023-04-08T20:24:50.809Z,11.32
2023-04-08T20:27:18.802Z,9.77
2023-04-08T20:29:45.415Z,11.20
2023-04-08T20:32:13.138Z,9.95
2023-04-08T20:34:39.654Z,7.80
2023-04-08T20:37:06.892Z,5.97
2023-04-08T20:39:33.431Z,6.32
2023-04-08T20:42:00.124Z,5.70
2023-04-08T20:44:27.650Z,5.95
2023-04-08T20:46:54.754Z,6.28
2023-04-08T20:49:21.438Z,7.75
2023-04-08T20:51:48.101Z,8.63
2023-04-08T20:54:14.736Z,8.98
2023-04-08T20:56:42.006Z,8.90
2023-04-08T20:59:08.665Z,9.00
2023-04-08T21:01:35.654Z,8.10
2023-04-08T21:04:04.371Z,8.60
2023-04-08T21:06:32.195Z,8.35
2023-04-08T21:08:58.832Z,8.88
2023-04-08T21:11:25.874Z,8.52
2023-04-08T21:13:52.455Z,8.30
2023-04-08T21:16:19.021Z,8.77
2023-04-08T21:18:45.797Z,8.07
2023-04-08T21:21:12.580Z,8.57
2023-04-08T21:23:39.145Z,8.40
2023-04-08T21:26:13.716Z,8.38
2023-04-08T21:28:40.492Z,8.93
2023-04-08T21:31:14.220Z,8.38
2023-04-08T21:33:40.992Z,9.55
2023-04-08T21:36:07.655Z,9.63
2023-04-08T21:38:34.640Z,10.50
2023-04-08T21:41:01.316Z,10.00
2023-04-08T21:43:27.929Z,10.02
2023-04-08T21:45:54.627Z,9.80
2023-04-08T21:48:21.368Z,9.88
2023-04-08T21:50:48.962Z,8.68
2023-04-08T21:53:15.615Z,10.55
2023-04-08T21:55:42.184Z,10.48
2023-04-08T21:58:08.905Z,11.30
2023-04-08T22:00:35.472Z,10.75
2023-04-08T22:03:02.229Z,10.88
2023-04-08T22:05:31.420Z,10.55
2023-04-08T22:07:58.082Z,11.43
2023-04-08T22:10:24.749Z,11.20
2023-04-08T22:12:51.379Z,11.32
2023-04-08T22:15:17.899Z,11.35
2023-04-08T22:17:44.486Z,10.98
2023-04-08T22:20:11.506Z,12.30
2023-04-08T22:22:38.060Z,12.10
2023-04-08T22:25:05.275Z,11.82
2023-04-08T22:27:31.976Z,11.55
2023-04-08T22:29:58.609Z,11.93
2023-04-08T22:32:25.300Z,11.50
2023-04-08T22:34:51.884Z,11.23
2023-04-08T22:37:18.501Z,11.07
2023-04-08T22:39:45.243Z,11.18
2023-04-08T22:42:11.772Z,11.20
2023-04-08T22:44:38.422Z,11.20
2023-04-08T22:47:05.240Z,11.38
2023-04-08T22:49:31.816Z,11.38
2023-04-08T22:51:58.461Z,11.20
2023-04-08T22:54:25.560Z,9.98
2023-04-08T22:56:52.155Z,10.77
2023-04-08T22:59:18.783Z,9.65
2023-04-08T23:01:45.467Z,10.18
2023-04-08T23:04:12.136Z,10.57
2023-04-08T23:06:38.834Z,10.25
2023-04-08T23:09:05.362Z,10.35
2023-04-08T23:11:31.945Z,10.63
2023-04-08T23:13:58.505Z,10.68
2023-04-08T23:16:25.258Z,10.32
2023-04-08T23:18:52.264Z,11.13
2023-04-08T23:21:20.218Z,11.43
2023-04-08T23:23:46.819Z,10.95
2023-04-08T23:26:19.928Z,10.50
2023-04-08T23:28:46.895Z,10.70
2023-04-08T23:31:13.590Z,11.00
2023-04-08T23:33:40.364Z,11.02
2023-04-08T23:36:11.436Z,10.25
2023-04-08T23:38:38.254Z,10.45
2023-04-08T23:41:06.016Z,10.90
2023-04-08T23:43:32.843Z,11.05
2023-04-08T23:45:59.403Z,10.60
2023-04-08T23:48:25.917Z,10.38
2023-04-08T23:50:53.371Z,10.93
2023-04-08T23:53:21.001Z,10.43
2023-04-08T23:55:47.775Z,10.02
2023-04-08T23:58:14.386Z,10.75
